KCOM

Details ICAO KCOM
Name COLEMAN MUNI
Region United States
Timezone America/Chicago (UTC-5.0)
Plans Departing 1
Arriving 3
Stats Elevation 1,697 ft / 517 m (AMSL)
Location 31.841141° -99.403610°
Runways 1
Magnetic Variation 4.740° E
Sunrise 2018-05-27 11:35:45 UTC / 2018-05-27 06:35:45 Local
Sunset 2018-05-28 01:36:44 UTC / 2018-05-27 20:36:44 Local
Advertisement - Login to hide

Runways

ID Width Length Bearing (true) Bearing (mag) Surface Threshold Offset Overrun Length
15 75 ft / 23 m 4,513 ft / 1,376 m 155.26° 150.52° Asphalt 0 ft / 0 m 0 ft / 0 m
33 75 ft / 23 m 4,513 ft / 1,376 m 335.27° 330.53° Asphalt 0 ft / 0 m 0 ft / 0 m

Map

Weather


0- 5 10 15 20 25 30 35+ Temperature / ° C

Clouds and Precipitation
Forecast for 2018-05-27 12:00 UTC. Updated 42 minutes ago

Ground ~20,000 ft ~40,000 ft Winds

METAR

KCOM 270955Z AUTO 12004KT 10SM CLR 23/17 A2981 RMK AO2 T02300166

TAF

Not found

Frequencies

Unicom 122.80 MHz CTAF/UNICOM
Warning: Do not use this data for real-world aviation or navigation. No guarantee of current accuracy is given.